createdAt,value
2022-12-09T00:00:26.096Z,5.64
2022-12-09T00:05:29.454Z,5.51
2022-12-09T00:10:32.942Z,5.50
2022-12-09T00:15:41.534Z,5.45
2022-12-09T00:20:45.004Z,5.35
2022-12-09T00:25:48.397Z,5.28
2022-12-09T00:30:53.161Z,5.25
2022-12-09T00:35:56.936Z,5.23
2022-12-09T00:41:00.377Z,5.21
2022-12-09T00:46:05.663Z,5.15
2022-12-09T00:51:10.929Z,5.18
2022-12-09T00:56:15.218Z,5.13
2022-12-09T01:01:20.287Z,5.14
2022-12-09T01:06:25.566Z,5.09
2022-12-09T01:11:30.608Z,5.09
2022-12-09T01:16:36.033Z,5.10
2022-12-09T01:21:39.472Z,5.22
2022-12-09T01:26:42.848Z,5.16
2022-12-09T01:31:47.693Z,5.08
2022-12-09T01:36:51.487Z,5.06
2022-12-09T01:41:54.901Z,5.02
2022-12-09T01:47:00.872Z,5.07
2022-12-09T01:52:07.580Z,5.00
2022-12-09T01:57:11.374Z,4.90
2022-12-09T02:02:17.787Z,4.88
2022-12-09T02:07:21.649Z,4.86
2022-12-09T02:12:33.717Z,4.85
2022-12-09T02:17:42.079Z,4.85
2022-12-09T02:22:48.880Z,4.82
2022-12-09T02:28:14.010Z,4.79
2022-12-09T02:33:32.756Z,4.76
2022-12-09T02:38:41.179Z,4.83
2022-12-09T02:43:50.083Z,4.89
2022-12-09T02:48:59.602Z,4.87
2022-12-09T02:54:08.889Z,4.80
2022-12-09T02:59:14.168Z,4.71
2022-12-09T03:04:20.152Z,4.56
2022-12-09T03:09:28.043Z,4.59
2022-12-09T03:14:36.670Z,4.58
2022-12-09T03:19:44.095Z,4.48
2022-12-09T03:24:53.687Z,4.46
2022-12-09T03:29:57.431Z,4.49
2022-12-09T03:35:04.009Z,4.47
2022-12-09T03:40:14.352Z,4.36
2022-12-09T03:45:19.628Z,4.30
2022-12-09T03:50:25.144Z,4.31
2022-12-09T03:55:35.539Z,4.30
2022-12-09T04:00:39.209Z,4.26
2022-12-09T04:05:43.446Z,4.15
2022-12-09T04:10:48.399Z,4.14
2022-12-09T04:15:51.823Z,4.22
2022-12-09T04:20:55.181Z,4.20
2022-12-09T04:26:00.592Z,4.17
2022-12-09T04:31:04.332Z,4.14
2022-12-09T04:36:09.700Z,4.12
2022-12-09T04:41:15.412Z,4.11
2022-12-09T04:46:19.564Z,4.01
2022-12-09T04:51:23.023Z,4.09
2022-12-09T04:56:28.087Z,4.10
2022-12-09T05:01:31.989Z,4.15
2022-12-09T05:06:35.940Z,4.09
2022-12-09T05:11:41.173Z,4.01
2022-12-09T05:16:44.821Z,4.02
2022-12-09T05:21:48.745Z,4.09
2022-12-09T05:26:53.740Z,4.17
2022-12-09T05:31:57.409Z,4.18
2022-12-09T05:37:01.220Z,4.18
2022-12-09T05:42:06.599Z,4.15
2022-12-09T05:47:10.169Z,4.18
2022-12-09T05:52:14.532Z,4.16
2022-12-09T05:57:19.883Z,3.97
2022-12-09T06:02:23.595Z,4.06
2022-12-09T06:07:27.240Z,4.02
2022-12-09T06:12:32.742Z,3.94
2022-12-09T06:17:36.522Z,3.90
2022-12-09T06:22:40.207Z,3.94
2022-12-09T06:27:45.127Z,3.89
2022-12-09T06:32:49.170Z,3.86
2022-12-09T06:37:53.668Z,3.89
2022-12-09T06:42:58.660Z,3.89
2022-12-09T06:48:02.550Z,3.93
2022-12-09T06:53:06.735Z,3.94
2022-12-09T06:58:11.766Z,3.95
2022-12-09T07:03:15.483Z,4.03
2022-12-09T07:08:19.130Z,4.03
2022-12-09T07:13:24.757Z,4.28
2022-12-09T07:18:28.501Z,4.49
2022-12-09T07:23:32.486Z,4.60
2022-12-09T07:28:39.999Z,4.79
2022-12-09T07:33:43.820Z,4.95
2022-12-09T07:38:47.596Z,5.14
2022-12-09T07:43:52.951Z,5.30
2022-12-09T07:48:57.615Z,5.43
2022-12-09T07:54:01.822Z,5.61
2022-12-09T07:59:09.051Z,5.82
2022-12-09T08:04:13.375Z,5.98
2022-12-09T08:09:17.616Z,6.16
2022-12-09T08:14:22.750Z,6.32
2022-12-09T08:19:26.453Z,6.49
2022-12-09T08:24:30.749Z,6.66
2022-12-09T08:29:35.791Z,6.81
2022-12-09T08:34:40.620Z,7.00
2022-12-09T08:39:44.900Z,7.16
2022-12-09T08:44:51.787Z,7.34
2022-12-09T08:49:58.393Z,7.46
2022-12-09T08:55:02.201Z,7.61
2022-12-09T09:00:09.542Z,7.81
2022-12-09T09:05:14.475Z,7.95
2022-12-09T09:10:19.346Z,8.16
2022-12-09T09:15:24.652Z,8.27
2022-12-09T09:20:28.901Z,8.46
2022-12-09T09:25:32.449Z,8.56
2022-12-09T09:30:37.882Z,8.64
2022-12-09T09:35:41.616Z,8.77
2022-12-09T09:40:45.137Z,8.91
2022-12-09T09:45:50.646Z,8.98
2022-12-09T09:50:59.984Z,8.99
2022-12-09T09:56:06.658Z,8.98
2022-12-09T10:01:14.629Z,9.08
2022-12-09T10:06:27.208Z,9.29
2022-12-09T10:11:34.307Z,9.34
2022-12-09T10:16:44.004Z,9.27
2022-12-09T10:21:49.592Z,9.49
2022-12-09T10:27:01.408Z,9.57
2022-12-09T10:32:06.669Z,9.69
2022-12-09T10:37:20.379Z,9.57
2022-12-09T10:42:42.967Z,9.74
2022-12-09T10:47:53.337Z,9.89
2022-12-09T10:52:57.984Z,9.86
2022-12-09T10:58:17.058Z,10.06
2022-12-09T11:03:29.706Z,10.02
2022-12-09T11:08:33.461Z,10.17
2022-12-09T11:13:43.592Z,10.06
2022-12-09T11:18:49.374Z,10.03
2022-12-09T11:24:02.465Z,10.22
2022-12-09T11:29:14.281Z,10.19
2022-12-09T11:34:24.041Z,10.31
2022-12-09T11:39:29.709Z,10.12
2022-12-09T11:44:34.217Z,10.16
2022-12-09T11:49:46.368Z,10.20
2022-12-09T11:54:57.179Z,10.23
2022-12-09T12:00:03.298Z,10.30
2022-12-09T12:05:27.499Z,10.30
2022-12-09T12:10:35.121Z,10.30
2022-12-09T12:15:47.541Z,10.19
2022-12-09T12:21:25.565Z,10.15
2022-12-09T12:26:32.848Z,10.15
2022-12-09T12:32:18.533Z,10.29
2022-12-09T12:37:37.986Z,10.04
2022-12-09T12:43:04.550Z,10.00
2022-12-09T12:48:12.786Z,10.29
2022-12-09T12:53:26.932Z,10.53
2022-12-09T12:58:51.276Z,10.14
2022-12-09T13:04:01.363Z,10.06
2022-12-09T13:09:11.956Z,10.41
2022-12-09T13:14:18.540Z,10.58
2022-12-09T13:19:24.695Z,10.59
2022-12-09T13:24:34.669Z,10.64
2022-12-09T13:29:43.047Z,10.69
2022-12-09T13:34:49.903Z,10.69
2022-12-09T13:39:58.785Z,10.78
2022-12-09T13:45:07.259Z,10.51
2022-12-09T13:50:24.779Z,10.57
2022-12-09T13:55:40.026Z,10.70
2022-12-09T14:00:45.065Z,10.53
2022-12-09T14:05:48.888Z,10.74
2022-12-09T14:10:54.041Z,10.60
2022-12-09T14:16:15.112Z,10.63
2022-12-09T14:21:28.146Z,10.32
2022-12-09T14:26:36.785Z,10.26
2022-12-09T14:31:57.283Z,10.06
2022-12-09T14:37:12.054Z,9.89
2022-12-09T14:42:27.112Z,9.69
2022-12-09T14:47:32.492Z,9.57
2022-12-09T14:52:36.026Z,9.48
2022-12-09T14:57:44.212Z,9.29
2022-12-09T15:03:08.972Z,8.98
2022-12-09T15:08:28.377Z,8.84
2022-12-09T15:13:34.455Z,8.61
2022-12-09T15:18:39.004Z,8.55
2022-12-09T15:23:44.944Z,8.14
2022-12-09T15:28:51.140Z,8.29
2022-12-09T15:33:55.916Z,8.34
2022-12-09T15:39:02.864Z,8.40
2022-12-09T15:44:12.555Z,8.46
2022-12-09T15:49:33.705Z,8.44
2022-12-09T15:54:39.868Z,8.48
2022-12-09T15:59:50.948Z,8.49
2022-12-09T16:05:00.427Z,8.36
2022-12-09T16:10:08.599Z,8.41
2022-12-09T16:15:15.485Z,8.34
2022-12-09T16:20:33.214Z,8.42
2022-12-09T16:25:39.225Z,8.16
2022-12-09T16:30:46.881Z,7.78
2022-12-09T16:35:57.996Z,8.07
2022-12-09T16:41:10.389Z,8.02
2022-12-09T16:46:42.462Z,7.92
2022-12-09T16:51:45.994Z,7.98
2022-12-09T16:56:49.820Z,7.95
2022-12-09T17:01:55.074Z,7.99
2022-12-09T17:06:58.487Z,8.07
2022-12-09T17:12:01.990Z,7.90
2022-12-09T17:17:06.853Z,7.84
2022-12-09T17:22:10.751Z,8.10
2022-12-09T17:27:14.181Z,8.10
2022-12-09T17:32:19.297Z,8.16
2022-12-09T17:37:22.668Z,8.25
2022-12-09T17:42:30.879Z,8.14
2022-12-09T17:47:37.321Z,8.12
2022-12-09T17:52:42.152Z,8.11
2022-12-09T17:57:49.808Z,7.98
2022-12-09T18:02:57.986Z,7.74
2022-12-09T18:08:01.400Z,7.57
2022-12-09T18:13:04.892Z,7.68
2022-12-09T18:18:09.799Z,7.63
2022-12-09T18:23:13.149Z,7.70
2022-12-09T18:28:16.562Z,7.75
2022-12-09T18:33:21.597Z,7.58
2022-12-09T18:38:25.039Z,7.41
2022-12-09T18:43:28.680Z,7.48
2022-12-09T18:48:33.672Z,7.61
2022-12-09T18:53:37.086Z,7.58
2022-12-09T18:59:04.812Z,7.62
2022-12-09T19:04:08.535Z,7.69
2022-12-09T19:09:14.095Z,7.56
2022-12-09T19:14:19.006Z,7.36
2022-12-09T19:19:25.918Z,7.51
2022-12-09T19:24:32.087Z,7.53
2022-12-09T19:29:35.675Z,7.51
2022-12-09T19:34:40.393Z,7.50
2022-12-09T19:39:44.914Z,7.66
2022-12-09T19:45:01.601Z,7.64
2022-12-09T19:50:08.621Z,7.72
2022-12-09T19:55:13.363Z,7.67
2022-12-09T20:00:18.208Z,7.63
2022-12-09T20:05:22.955Z,7.79
2022-12-09T20:10:26.380Z,7.71
2022-12-09T20:15:29.780Z,7.63
2022-12-09T20:20:35.595Z,7.69
2022-12-09T20:25:39.089Z,7.76
2022-12-09T20:30:42.628Z,7.75
2022-12-09T20:35:47.361Z,7.67
2022-12-09T20:40:50.749Z,7.79
2022-12-09T20:45:54.246Z,7.65
2022-12-09T20:50:59.130Z,7.48
2022-12-09T20:56:04.694Z,7.56
2022-12-09T21:01:09.338Z,7.36
2022-12-09T21:06:15.178Z,7.58
2022-12-09T21:11:20.275Z,7.66
2022-12-09T21:16:25.463Z,6.81
2022-12-09T21:21:32.579Z,6.88
2022-12-09T21:26:35.964Z,7.41
2022-12-09T21:31:40.876Z,7.63
2022-12-09T21:36:45.812Z,7.55
2022-12-09T21:41:49.183Z,7.57
2022-12-09T21:46:52.643Z,6.70
2022-12-09T21:51:57.444Z,7.23
2022-12-09T21:57:00.788Z,7.48
2022-12-09T22:02:04.227Z,7.49
2022-12-09T22:07:09.024Z,6.88
2022-12-09T22:12:12.434Z,7.08
2022-12-09T22:17:15.854Z,7.18
2022-12-09T22:22:21.180Z,7.12
2022-12-09T22:27:24.559Z,7.31
2022-12-09T22:32:30.757Z,7.60
2022-12-09T22:37:43.551Z,7.39
2022-12-09T22:42:47.970Z,7.77
2022-12-09T22:47:51.358Z,7.65
2022-12-09T22:52:56.407Z,7.21
2022-12-09T22:57:59.828Z,6.98
2022-12-09T23:03:03.306Z,7.58
2022-12-09T23:08:08.366Z,7.26
2022-12-09T23:13:11.849Z,7.45
2022-12-09T23:18:15.254Z,7.77
2022-12-09T23:23:20.296Z,7.87
2022-12-09T23:28:23.681Z,7.80
2022-12-09T23:33:27.069Z,8.09
2022-12-09T23:38:31.834Z,7.95
2022-12-09T23:43:36.872Z,7.79
2022-12-09T23:48:40.357Z,8.00
2022-12-09T23:53:46.411Z,8.05
2022-12-09T23:58:54.718Z,8.00
